Αρχική σελίδα
METAR-TAF:

METAR-TAF

Αεροδρόμια :

Imperatriz, Μαρανιάο, Βραζιλία

γεωγραφικό πλάτος: 05-32S, γεωγραφικό μήκος: 047-30W, υψόμετρο: 123 μ

Παρών καιρός

Η αναφορά έγινε 31 λεπτά πριν, στις 19:00 UTC
Άνεμος 7 kt από Α
Θερμοκρασία 35°C
Υγρασία 47%
Πίεση 1010 hPa
Ορατότητα 10 χλμ και άνω
Λίγα νέφη σε ύψος 3000 πόδια

METAR: SBIZ 201900Z 08007KT 9999 FEW030 35/22 Q1010

Χρόνος: 16:31 (19:31 UTC)

Πρόγνωση Καιρού

Η αναφορά έγινε 4 ώρες και 52 λεπτά πριν, στις 14:39 UTC
Η πρόγνωση ισχύει από τις 20 στις 18 UTC έως τις 21 στις 06 UTC
Άνεμος 5 kt από Α/NA
Ορατότητα 10 χλμ και άνω
Διάσπαρτα νέφη σε ύψος 3000 πόδια
Καθιστάμενος
από 20 στις 19 UTC έως τις 20 στις 21 UTC
Άνεμος 5 kt από Α/BA

TAF: SBIZ 201439Z 2018/2106 12005KT 9999 SCT030 TX36/2018Z TN24/2106Z BECMG 2019/2021 07005KT RMK PGU

Μετεωρολογικές αναφορές και προγνώσεις για περισσότερα από 4000 αεροδρόμια (δελτία METAR και TAF).

Οι διαθέσιμοι σταθμοί απεικονίζονται στο χάρτη με κίτρινες και κόκκινες κουκκίδες.

Μετακινήστε το ποντίκι πάνω από τις κουκκίδες για να δείτε το όνομα του σταθμού.

Στη συνέχεια, κάντε κλικ για να δείτε τις μετεωρολογικές αναφορές και τις προγνώσεις καιρού.

Για να αλλάξετε το χάρτη: κάντε κλικ στα πράσινα κουμπιά με τον μαύρο σταυρό για να ζουμάρετε, στο πράσινο κουμπί με την παύλα για να αφαιρέσετε το ζουμ ή στα πράσινα βέλη για να αντιπαραβάλλετε χάρτες.


METAR-TAF: